Time;durP1;ratioP1;P1;durP2;ratioP2;P2;SDS_P1;SDS_P2;PMS_P1;PMS_P2;Temp;Humidity;BMP_temperature;BMP_pressure;BME280_temperature;BME280_humidity;BME280_pressure;Samples;Min_cycle;Max_cycle;Signal;HPM_P1;HPM_P2
2023/06/03 00:00:58;;;;;;;10.75;7.40;;;;;;;11.78;100.00;92963.88;2531138;23;20005;-86
2023/06/03 00:01:59;;;;;;;10.57;7.40;;;;;;;11.83;100.00;92969.47;2519845;23;20100;-85
2023/06/03 00:03:00;;;;;;;11.25;7.22;;;;;;;11.73;100.00;92964.41;2519746;23;20038;-86
2023/06/03 00:04:01;;;;;;;11.20;7.47;;;;;;;11.69;100.00;92974.47;2531622;23;20394;-82
2023/06/03 00:05:03;;;;;;;10.60;7.78;;;;;;;11.57;100.00;92967.91;2531131;23;20006;-83
2023/06/03 00:06:06;;;;;;;15.02;8.07;;;;;;;11.58;100.00;92972.06;2543686;23;20029;-85
2023/06/03 00:07:08;;;;;;;11.45;7.93;;;;;;;11.53;100.00;92970.69;2543891;23;20060;-86
2023/06/03 00:08:12;;;;;;;12.20;7.97;;;;;;;11.43;100.00;92960.28;2543226;23;20380;-86
2023/06/03 00:09:14;;;;;;;12.45;7.80;;;;;;;11.38;100.00;92969.56;2520551;23;20010;-85
2023/06/03 00:10:16;;;;;;;10.48;7.18;;;;;;;11.42;100.00;92964.13;2519212;23;20014;-84
2023/06/03 00:11:17;;;;;;;10.63;7.55;;;;;;;11.39;100.00;92965.72;2531156;23;20096;-86
2023/06/03 00:12:19;;;;;;;16.55;7.75;;;;;;;11.37;100.00;92965.41;2519773;23;20010;-85
2023/06/03 00:13:21;;;;;;;16.45;7.65;;;;;;;11.43;100.00;92970.97;2520085;23;20434;-87
2023/06/03 00:14:22;;;;;;;12.13;7.82;;;;;;;11.39;100.00;92968.41;2519544;23;20010;-83
2023/06/03 00:15:23;;;;;;;11.27;6.97;;;;;;;11.39;100.00;92968.41;2519326;23;20014;-85
2023/06/03 00:16:26;;;;;;;12.40;7.65;;;;;;;11.38;100.00;92961.56;2518931;23;20025;-84
2023/06/03 00:17:27;;;;;;;9.20;7.25;;;;;;;11.29;100.00;92961.41;2519750;23;20089;-83
2023/06/03 00:18:29;;;;;;;13.10;7.55;;;;;;;11.35;100.00;92965.81;2531255;23;20002;-83
2023/06/03 00:19:31;;;;;;;10.73;7.20;;;;;;;11.31;100.00;92970.50;2519309;23;20464;-84
2023/06/03 00:20:35;;;;;;;12.82;7.78;;;;;;;11.30;100.00;92965.59;2519893;23;20122;-84
2023/06/03 00:21:40;;;;;;;10.52;7.78;;;;;;;11.34;100.00;92963.56;2520372;23;20006;-83
2023/06/03 00:22:41;;;;;;;14.80;7.47;;;;;;;11.45;100.00;92971.28;2531909;23;20010;-85
2023/06/03 00:23:45;;;;;;;10.80;7.10;;;;;;;11.42;100.00;92970.22;2531053;23;20389;-85
2023/06/03 00:24:48;;;;;;;12.48;7.63;;;;;;;11.35;100.00;92967.75;2543102;23;20009;-86
2023/06/03 00:25:52;;;;;;;11.45;7.55;;;;;;;11.40;100.00;92967.22;2520017;23;20512;-85
2023/06/03 00:26:55;;;;;;;11.55;7.40;;;;;;;11.37;100.00;92973.44;2531654;23;20012;-85
2023/06/03 00:27:58;;;;;;;11.63;7.47;;;;;;;11.29;100.00;92969.44;2519796;23;20013;-86
2023/06/03 00:29:00;;;;;;;15.13;7.18;;;;;;;11.38;100.00;92969.56;2544051;23;20008;-82
2023/06/03 00:30:03;;;;;;;11.10;7.95;;;;;;;11.37;100.00;92970.75;2543469;23;20092;-82
2023/06/03 00:31:05;;;;;;;8.45;7.40;;;;;;;11.33;100.00;92970.09;2531363;23;20021;-85
2023/06/03 00:32:07;;;;;;;13.90;7.75;;;;;;;11.32;100.00;92972.00;2519590;23;20010;-85
2023/06/03 00:33:08;;;;;;;14.50;7.78;;;;;;;11.30;100.00;92968.25;2519329;23;20060;-87
2023/06/03 00:34:10;;;;;;;17.10;7.55;;;;;;;11.32;100.00;92968.56;2519456;23;20608;-83
2023/06/03 00:35:11;;;;;;;10.23;7.93;;;;;;;11.31;100.00;92967.09;2531553;23;20136;-84
2023/06/03 00:36:12;;;;;;;12.95;7.85;;;;;;;11.20;100.00;92961.28;2543177;23;20652;-86
2023/06/03 00:37:13;;;;;;;14.50;8.13;;;;;;;11.23;100.00;92963.84;2531298;23;20005;-84
2023/06/03 00:38:15;;;;;;;12.63;7.97;;;;;;;11.17;100.00;92956.78;2519284;23;20089;-85
2023/06/03 00:39:16;;;;;;;12.10;7.63;;;;;;;11.20;100.00;92966.63;2519686;23;20089;-86
2023/06/03 00:40:18;;;;;;;13.77;7.72;;;;;;;11.18;100.00;92959.00;2519485;23;20005;-82
2023/06/03 00:41:19;;;;;;;12.90;8.20;;;;;;;11.18;100.00;92958.25;2531133;23;20006;-85
2023/06/03 00:42:21;;;;;;;11.27;7.63;;;;;;;11.20;100.00;92954.00;2531398;23;20029;-86
2023/06/03 00:43:22;;;;;;;9.77;7.25;;;;;;;11.17;100.00;92954.84;2531823;23;20021;-85
2023/06/03 00:44:23;;;;;;;10.20;7.43;;;;;;;11.19;100.00;92963.19;2543767;23;20013;-84
2023/06/03 00:45:25;;;;;;;13.13;7.72;;;;;;;11.15;100.00;92959.88;2531266;23;20311;-86
2023/06/03 00:46:36;;;;;;;12.23;7.45;;;;;;;11.15;100.00;92965.22;2520156;23;20041;-85
2023/06/03 00:47:42;;;;;;;13.52;8.32;;;;;;;11.06;100.00;92963.16;2523311;23;20070;-85
2023/06/03 00:48:50;;;;;;;13.57;7.85;;;;;;;11.15;100.00;92959.88;2544179;23;20096;-84
2023/06/03 00:49:58;;;;;;;10.00;7.43;;;;;;;11.15;100.00;92957.19;2543318;23;20367;-86
2023/06/03 00:51:08;;;;;;;11.15;7.07;;;;;;;11.12;100.00;92958.03;2533834;23;20006;-85
2023/06/03 00:52:18;;;;;;;14.65;7.80;;;;;;;11.08;100.00;92952.03;2545286;23;20016;-84
2023/06/03 00:53:24;;;;;;;14.93;7.18;;;;;;;11.09;100.00;92956.19;2532779;23;20070;-85
2023/06/03 00:54:31;;;;;;;14.45;7.57;;;;;;;11.11;100.00;92959.22;2533501;23;20651;-86
2023/06/03 00:55:35;;;;;;;16.13;7.97;;;;;;;11.18;100.00;92961.69;2532093;23;20037;-83
2023/06/03 00:56:46;;;;;;;16.58;8.07;;;;;;;11.12;100.00;92958.03;2531641;23;20026;-84
2023/06/03 00:57:55;;;;;;;13.10;7.28;;;;;;;11.07;100.00;92950.53;2532758;23;20094;-84
2023/06/03 00:59:04;;;;;;;14.13;7.57;;;;;;;11.03;100.00;92947.94;2522149;23;20010;-84
2023/06/03 01:00:10;;;;;;;12.57;8.60;;;;;;;11.03;100.00;92955.22;2522526;23;20010;-85
2023/06/03 01:01:19;;;;;;;12.57;7.40;;;;;;;11.00;100.00;92956.06;2519812;23;20034;-83
2023/06/03 01:02:27;;;;;;;13.43;7.78;;;;;;;11.01;100.00;92957.56;2532803;23;20473;-87
2023/06/03 01:03:34;;;;;;;12.90;7.20;;;;;;;11.01;100.00;92955.63;2544303;23;20037;-88
2023/06/03 01:04:45;;;;;;;13.65;8.10;;;;;;;10.96;100.00;92956.16;2532644;23;20010;-90
2023/06/03 01:06:05;;;;;;;11.88;8.25;;;;;;;11.16;100.00;92957.94;2535572;23;20006;-85
2023/06/03 01:07:17;;;;;;;10.32;7.35;;;;;;;11.18;100.00;92959.00;2534886;23;20014;-85
2023/06/03 01:08:45;;;;;;;13.18;7.20;;;;;;;11.08;100.00;92957.38;2532881;23;20368;-85
2023/06/03 01:10:08;;;;;;;15.50;7.88;;;;;;;10.98;100.00;92959.16;2535979;23;20047;-86
2023/06/03 01:11:29;;;;;;;16.55;8.13;;;;;;;10.92;100.00;92960.84;2527260;23;20500;-85
2023/06/03 01:12:45;;;;;;;14.50;7.35;;;;;;;11.06;100.00;92959.72;2526699;23;20028;-84
2023/06/03 01:13:58;;;;;;;11.88;7.65;;;;;;;10.95;100.00;92956.56;2533805;23;20425;-83
2023/06/03 01:15:14;;;;;;;11.48;7.50;;;;;;;10.80;100.00;92951.59;2545077;23;20260;-84
2023/06/03 01:16:26;;;;;;;10.68;7.15;;;;;;;10.77;100.00;92952.44;2554632;23;20028;-85
2023/06/03 01:17:39;;;;;;;11.15;8.30;;;;;;;10.81;100.00;92949.66;2532921;23;20089;-85
2023/06/03 01:18:48;;;;;;;12.25;7.70;;;;;;;10.76;100.00;92953.59;2523041;23;20524;-84
2023/06/03 01:19:59;;;;;;;12.65;7.90;;;;;;;10.68;100.00;92951.53;2521824;23;20084;-85
2023/06/03 01:21:12;;;;;;;12.93;7.93;;;;;;;10.67;100.00;92950.78;2532341;23;20402;-84
2023/06/03 01:22:24;;;;;;;16.13;8.35;;;;;;;10.76;100.00;92950.19;2535578;23;20040;-84
2023/06/03 01:23:36;;;;;;;14.52;8.35;;;;;;;10.69;100.00;92947.69;2542093;23;20464;-87
2023/06/03 01:24:45;;;;;;;15.15;8.48;;;;;;;10.69;100.00;92953.78;2545135;23;20027;-84
2023/06/03 01:25:52;;;;;;;15.52;7.60;;;;;;;10.65;100.00;92945.09;2532387;23;20010;-85
2023/06/03 01:27:02;;;;;;;17.67;8.02;;;;;;;10.61;100.00;92944.41;2520862;23;20539;-84
2023/06/03 01:28:09;;;;;;;13.52;7.85;;;;;;;10.55;100.00;92946.13;2522711;23;20026;-84
2023/06/03 01:29:17;;;;;;;12.05;8.23;;;;;;;10.54;100.00;92949.97;2521229;23;20010;-83
2023/06/03 01:30:24;;;;;;;12.30;8.02;;;;;;;10.56;100.00;92948.34;2542552;23;20017;-82
2023/06/03 01:31:28;;;;;;;13.57;8.13;;;;;;;10.72;100.00;92947.59;2531775;23;20048;-84
2023/06/03 01:32:38;;;;;;;11.98;8.05;;;;;;;10.74;100.00;92942.56;2519507;23;20513;-84
2023/06/03 01:33:46;;;;;;;12.48;8.30;;;;;;;10.69;100.00;92947.69;2522070;23;20540;-86
2023/06/03 01:34:55;;;;;;;12.70;8.57;;;;;;;10.58;100.00;92948.69;2521399;23;20006;-86
2023/06/03 01:36:05;;;;;;;16.45;8.10;;;;;;;10.51;100.00;92948.13;2534256;23;20060;-84
2023/06/03 01:37:09;;;;;;;12.00;8.13;;;;;;;10.59;100.00;92944.09;2542543;23;20307;-86
2023/06/03 01:38:14;;;;;;;13.85;7.82;;;;;;;10.44;100.00;92945.59;2531219;23;20029;-85
2023/06/03 01:39:22;;;;;;;11.48;7.43;;;;;;;10.42;100.00;92946.03;2532198;23;20013;-84
2023/06/03 01:40:30;;;;;;;13.95;8.27;;;;;;;10.36;100.00;92944.28;2542448;23;20393;-84
2023/06/03 01:41:40;;;;;;;12.75;8.60;;;;;;;10.31;100.00;92948.94;2521140;23;20003;-85
2023/06/03 01:42:50;;;;;;;9.73;8.13;;;;;;;10.28;100.00;92946.38;2532662;23;20021;-86
2023/06/03 01:43:56;;;;;;;;;;;;;;;10.34;100.00;92945.44;2523161;23;20017;-85
2023/06/03 01:45:06;;;;;;;15.32;8.00;;;;;;;10.16;100.00;92944.34;2520967;23;19909;-86
2023/06/03 01:46:07;;;;;;;;;;;;;;;10.18;100.00;92941.97;2533546;23;20006;-83
2023/06/03 01:47:09;;;;;;;18.77;7.68;;;;;;;10.03;100.00;92942.31;2531395;23;19920;-82
2023/06/03 01:48:11;;;;;;;15.05;8.02;;;;;;;9.94;100.00;92942.13;2543915;23;20067;-85
2023/06/03 01:49:17;;;;;;;19.10;8.50;;;;;;;10.07;100.00;92950.25;2531215;23;20014;-83
2023/06/03 01:50:25;;;;;;;12.00;8.32;;;;;;;9.99;100.00;92940.91;2521196;23;20030;-86
2023/06/03 01:51:26;;;;;;;13.15;8.50;;;;;;;10.01;100.00;92944.66;2522299;23;20006;-85
2023/06/03 01:52:52;;;;;;;18.50;8.93;;;;;;;9.99;100.00;92946.22;2520395;23;20018;-84
2023/06/03 01:54:02;;;;;;;15.02;7.97;;;;;;;9.86;100.00;92942.72;2528892;23;20251;-84
2023/06/03 01:55:12;;;;;;;14.05;8.30;;;;;;;9.81;100.00;92942.03;2522659;23;20014;-85
2023/06/03 01:56:22;;;;;;;14.93;8.68;;;;;;;9.77;100.00;92937.94;2532411;23;20010;-85
2023/06/03 01:57:31;;;;;;;;;;;;;;;9.88;100.00;92941.13;2533510;23;20006;-85
2023/06/03 01:58:42;;;;;;;13.60;7.80;;;;;;;9.77;100.00;92945.94;2522661;23;19925;-86
2023/06/03 01:59:52;;;;;;;14.63;8.43;;;;;;;9.79;100.00;92933.69;2522883;23;20854;-87
2023/06/03 02:01:03;;;;;;;16.98;8.60;;;;;;;9.72;100.00;92933.84;2532597;23;20005;-83
2023/06/03 02:02:13;;;;;;;13.38;8.60;;;;;;;9.76;100.00;92939.13;2523100;23;20378;-86
2023/06/03 02:03:23;;;;;;;13.55;8.95;;;;;;;9.88;100.00;92937.69;2522232;23;20090;-85
2023/06/03 02:04:33;;;;;;;19.92;8.95;;;;;;;9.82;100.00;92937.44;2522723;23;20085;-83
2023/06/03 02:05:46;;;;;;;21.27;8.95;;;;;;;9.85;100.00;92941.97;2534943;23;20006;-84
2023/06/03 02:06:59;;;;;;;21.27;9.32;;;;;;;9.78;100.00;92936.75;2555231;23;20001;-85
2023/06/03 02:08:09;;;;;;;15.13;8.45;;;;;;;9.78;100.00;92942.84;2542766;23;20404;-86
2023/06/03 02:09:21;;;;;;;17.35;8.80;;;;;;;9.70;100.00;92938.84;2532855;23;20010;-85
2023/06/03 02:10:33;;;;;;;17.15;8.95;;;;;;;9.70;100.00;92941.53;2522545;23;20009;-86
2023/06/03 02:11:44;;;;;;;15.27;9.15;;;;;;;9.59;100.00;92935.66;2535236;23;20010;-84
2023/06/03 02:12:54;;;;;;;15.48;8.55;;;;;;;9.53;100.00;92945.31;2544853;23;20021;-85
2023/06/03 02:14:03;;;;;;;15.98;8.93;;;;;;;9.46;100.00;92934.78;2543198;23;20056;-86
2023/06/03 02:15:15;;;;;;;18.67;9.13;;;;;;;9.46;100.00;92940.88;2532657;23;20425;-86
2023/06/03 02:16:23;;;;;;;12.98;8.75;;;;;;;9.42;100.00;92932.19;2534986;23;20014;-84
2023/06/03 02:17:33;;;;;;;13.82;8.43;;;;;;;9.34;100.00;92947.56;2542793;23;20009;-82
2023/06/03 02:18:45;;;;;;;15.27;8.73;;;;;;;9.30;100.00;92941.56;2532429;23;20128;-82
2023/06/03 02:48:06;;;;;;;14.48;8.38;;;;;;;8.53;100.00;92950.56;2628261;22;20018;-81
2023/06/03 02:49:18;;;;;;;13.25;8.60;;;;;;;8.62;100.00;92952.72;2624638;22;20007;-85
2023/06/03 02:50:27;;;;;;;14.85;8.73;;;;;;;8.49;100.00;92957.13;2611322;22;20038;-84
2023/06/03 02:51:39;;;;;;;12.85;8.43;;;;;;;8.55;100.00;92956.25;2589324;22;20003;-84
2023/06/03 02:52:47;;;;;;;14.07;8.77;;;;;;;8.60;100.00;92949.69;2601326;22;20669;-85
2023/06/03 02:53:57;;;;;;;17.02;9.25;;;;;;;8.55;100.00;92945.59;2589404;22;20011;-83
2023/06/03 02:55:07;;;;;;;14.52;8.77;;;;;;;8.47;100.00;92951.44;2590138;22;20012;-82
2023/06/03 02:56:22;;;;;;;13.38;8.40;;;;;;;8.36;100.00;92948.19;2590222;22;20000;-83
2023/06/03 02:57:32;;;;;;;16.30;8.50;;;;;;;8.30;100.00;92945.22;2591584;22;20066;-82
2023/06/03 02:58:45;;;;;;;12.57;8.90;;;;;;;8.37;100.00;92955.03;2589896;22;20087;-83
2023/06/03 02:59:56;;;;;;;15.90;8.88;;;;;;;8.35;100.00;92949.34;2611464;22;20028;-86
2023/06/03 03:01:03;;;;;;;23.70;9.20;;;;;;;8.36;100.00;92943.59;2615799;22;20723;-85
2023/06/03 03:02:13;;;;;;;13.98;9.25;;;;;;;8.39;100.00;92948.16;2610968;22;20373;-82
2023/06/03 03:03:21;;;;;;;13.73;8.85;;;;;;;8.29;100.00;92947.13;2589062;22;20015;-86
2023/06/03 03:04:36;;;;;;;20.17;8.90;;;;;;;8.27;100.00;92946.03;2589123;22;20003;-82
2023/06/03 03:05:48;;;;;;;14.90;8.98;;;;;;;8.25;100.00;92949.13;2603988;22;19999;-82
2023/06/03 03:06:58;;;;;;;18.23;9.20;;;;;;;8.30;100.00;92953.22;2600478;22;20010;-82
2023/06/03 03:08:07;;;;;;;19.58;9.13;;;;;;;8.29;100.00;92954.34;2600486;22;20000;-82
2023/06/03 03:09:17;;;;;;;15.57;8.73;;;;;;;8.12;100.00;92952.72;2602236;22;20000;-85
2023/06/03 03:10:27;;;;;;;14.80;8.35;;;;;;;8.17;100.00;92960.28;2613866;22;20089;-85
2023/06/03 03:11:35;;;;;;;19.60;9.70;;;;;;;8.12;100.00;92947.41;2622750;22;20197;-83
2023/06/03 03:12:44;;;;;;;16.70;9.80;;;;;;;8.03;100.00;92955.88;2589312;22;20015;-85
2023/06/03 03:13:54;;;;;;;15.45;8.80;;;;;;;8.20;100.00;92949.53;2602537;22;19999;-82
2023/06/03 03:15:02;;;;;;;;;;;;;;;8.15;100.00;92946.59;2601101;22;20414;-87
2023/06/03 03:16:12;;;;;;;15.23;8.68;;;;;;;8.08;100.00;92944.81;2601466;22;20014;-85
2023/06/03 03:17:23;;;;;;;13.32;8.80;;;;;;;7.91;100.00;92951.91;2613255;22;20412;-82
2023/06/03 03:18:33;;;;;;;19.15;9.40;;;;;;;7.86;100.00;92947.03;2600336;22;20053;-83
2023/06/03 03:19:45;;;;;;;17.65;9.02;;;;;;;7.93;100.00;92951.47;2590028;22;19996;-84
2023/06/03 03:21:05;;;;;;;21.08;8.73;;;;;;;8.04;100.00;92946.78;2602940;22;20411;-84
2023/06/03 03:22:12;;;;;;;;;;;;;;;7.94;100.00;92948.41;2615954;22;20053;-84
2023/06/03 03:23:21;;;;;;;21.05;8.65;;;;;;;7.97;100.00;92963.59;2599870;22;19977;-84
2023/06/03 03:24:33;;;;;;;14.15;8.15;;;;;;;7.83;100.00;92958.47;2601819;22;20017;-83
2023/06/03 03:25:42;;;;;;;18.17;9.05;;;;;;;7.82;100.00;92949.75;2613290;22;20022;-83
2023/06/03 03:26:59;;;;;;;11.57;9.07;;;;;;;7.86;100.00;92960.34;2611314;22;20026;-81
2023/06/03 03:28:09;;;;;;;13.73;9.02;;;;;;;7.82;100.00;92960.38;2601874;22;20077;-83
2023/06/03 03:29:23;;;;;;;16.50;9.60;;;;;;;7.73;100.00;92948.75;2602685;22;20008;-82
2023/06/03 03:30:32;;;;;;;14.90;8.93;;;;;;;7.61;100.00;92960.66;2613479;22;20041;-81
2023/06/03 03:31:41;;;;;;;20.85;9.68;;;;;;;7.72;100.00;92947.22;2610592;22;20007;-84
2023/06/03 03:32:56;;;;;;;14.75;8.90;;;;;;;7.78;100.00;92951.69;2597164;22;20008;-82
2023/06/03 03:34:07;;;;;;;20.02;9.70;;;;;;;7.79;100.00;92950.53;2611317;22;20001;-81
2023/06/03 03:35:21;;;;;;;16.23;9.02;;;;;;;7.74;100.00;92961.63;2597668;22;20423;-83
2023/06/03 03:36:31;;;;;;;20.60;9.20;;;;;;;7.72;100.00;92957.84;2588476;22;20099;-80
2023/06/03 03:37:41;;;;;;;18.83;9.10;;;;;;;7.74;100.00;92958.22;2584869;22;20004;-84
2023/06/03 03:39:02;;;;;;;16.77;8.52;;;;;;;7.73;100.00;92962.03;2573789;22;20028;-81
2023/06/03 03:40:25;;;;;;;19.30;9.02;;;;;;;7.71;100.00;92959.75;2591513;22;20007;-83
2023/06/03 03:41:36;;;;;;;16.83;8.88;;;;;;;7.81;100.00;92956.22;2600613;22;20007;-85
2023/06/03 03:42:59;;;;;;;15.77;9.07;;;;;;;7.88;100.00;92957.25;2597360;22;20003;-84
2023/06/03 03:44:06;;;;;;;18.52;9.07;;;;;;;7.92;100.00;92956.06;2608471;22;20003;-85
2023/06/03 03:45:22;;;;;;;18.98;9.13;;;;;;;7.85;100.00;92956.16;2595291;22;20070;-84
2023/06/03 03:46:32;;;;;;;16.98;8.68;;;;;;;7.87;100.00;92953.09;2601391;22;20078;-83
2023/06/03 03:47:41;;;;;;;14.57;9.15;;;;;;;7.76;100.00;92956.66;2594773;22;20007;-82
2023/06/03 03:48:51;;;;;;;18.73;10.18;;;;;;;7.70;100.00;92960.16;2574113;22;20008;-84
2023/06/03 03:50:03;;;;;;;18.27;8.82;;;;;;;7.62;100.00;92967.47;2584963;22;20008;-83
2023/06/03 03:51:13;;;;;;;17.27;8.75;;;;;;;7.40;100.00;92958.28;2587049;22;20000;-85
2023/06/03 03:52:21;;;;;;;;;;;;;;;7.52;100.00;92966.47;2598301;22;20026;-80
2023/06/03 03:53:35;;;;;;;13.25;8.73;;;;;;;7.56;100.00;92967.19;2597052;22;19918;-84
2023/06/03 03:54:45;;;;;;;17.65;9.27;;;;;;;7.63;100.00;92961.00;2585747;22;20074;-83
2023/06/03 03:55:57;;;;;;;19.63;8.95;;;;;;;7.59;100.00;92965.63;2597634;22;20118;-83
2023/06/03 03:57:12;;;;;;;15.95;9.20;;;;;;;7.54;100.00;92960.75;2608153;22;19999;-84
2023/06/03 03:58:41;;;;;;;15.40;8.35;;;;;;;7.51;100.00;92967.63;2598756;22;20065;-83
2023/06/03 03:59:51;;;;;;;14.55;8.60;;;;;;;7.66;100.00;92959.47;2608739;22;20029;-82
2023/06/03 04:01:12;;;;;;;15.15;8.98;;;;;;;7.65;100.00;92958.72;2608126;22;20429;-82
2023/06/03 04:02:22;;;;;;;16.05;8.93;;;;;;;7.69;100.00;92953.34;2586909;22;20053;-85
2023/06/03 04:03:40;;;;;;;21.85;8.70;;;;;;;7.67;100.00;92950.31;2587122;22;20010;-80
2023/06/03 04:04:49;;;;;;;20.35;8.73;;;;;;;7.73;100.00;92956.72;2598994;22;20053;-85
2023/06/03 04:06:00;;;;;;;31.48;9.65;;;;;;;7.74;100.00;92944.91;2597373;22;20468;-81
2023/06/03 04:07:14;;;;;;;17.83;8.77;;;;;;;7.75;100.00;92947.16;2610376;22;20022;-82
2023/06/03 04:08:44;;;;;;;33.20;9.77;;;;;;;7.73;100.00;92949.50;2610184;22;20003;-80
2023/06/03 04:09:57;;;;;;;33.00;9.77;;;;;;;7.68;100.00;92955.25;2607513;22;20773;-83
2023/06/03 04:11:09;;;;;;;20.50;9.60;;;;;;;7.69;100.00;92956.75;2595400;22;20011;-82
2023/06/03 04:12:36;;;;;;;22.25;9.95;;;;;;;7.72;100.00;92953.28;2587252;22;20011;-83
2023/06/03 04:13:46;;;;;;;16.65;8.85;;;;;;;7.69;100.00;92954.09;2601085;22;20006;-82
2023/06/03 04:14:56;;;;;;;19.67;9.85;;;;;;;7.65;100.00;92956.06;2597407;22;20075;-80
2023/06/03 04:16:04;;;;;;;;;;;;;;;7.71;100.00;92959.75;2597840;22;20090;-83
2023/06/03 04:17:17;;;;;;;22.95;9.32;;;;;;;7.74;100.00;92956.31;2583690;22;20306;-82
2023/06/03 04:18:28;;;;;;;22.15;9.75;;;;;;;7.82;100.00;92956.97;2600411;22;20006;-82
2023/06/03 04:19:42;;;;;;;17.95;9.15;;;;;;;7.85;100.00;92956.16;2595231;22;20004;-85
2023/06/03 04:21:02;;;;;;;21.25;9.85;;;;;;;7.86;100.00;92955.00;2575115;22;20079;-84
2023/06/03 04:22:17;;;;;;;16.95;9.57;;;;;;;7.88;100.00;92955.34;2590411;22;20347;-85
2023/06/03 04:23:29;;;;;;;16.05;9.27;;;;;;;7.87;100.00;92953.84;2598165;22;20542;-83
2023/06/03 04:24:40;;;;;;;18.10;9.27;;;;;;;7.85;100.00;92952.75;2597739;22;20027;-85
2023/06/03 04:25:53;;;;;;;21.35;10.07;;;;;;;7.89;100.00;92953.44;2598553;22;20369;-84
2023/06/03 04:27:02;;;;;;;19.25;9.52;;;;;;;7.86;100.00;92960.34;2598688;22;20027;-83
2023/06/03 04:28:16;;;;;;;15.27;9.30;;;;;;;7.96;100.00;92956.00;2598357;22;19999;-82
2023/06/03 04:29:25;;;;;;;16.83;9.43;;;;;;;7.95;100.00;92951.84;2598471;22;20487;-82
2023/06/03 04:30:45;;;;;;;20.05;10.55;;;;;;;8.02;100.00;92954.38;2597546;22;20038;-84
2023/06/03 04:31:54;;;;;;;19.70;10.60;;;;;;;8.07;100.00;92951.28;2609039;22;20485;-86
2023/06/03 04:33:01;;;;;;;18.83;10.10;;;;;;;8.09;100.00;92948.97;2595801;22;20003;-87
2023/06/03 04:34:11;;;;;;;22.27;9.77;;;;;;;8.12;100.00;92950.06;2586195;22;20012;-83
2023/06/03 04:35:21;;;;;;;18.38;10.00;;;;;;;8.05;100.00;92954.34;2598396;22;20018;-84
2023/06/03 04:36:29;;;;;;;15.70;9.98;;;;;;;8.11;100.00;92951.97;2584887;22;20011;-85
2023/06/03 04:37:40;;;;;;;20.60;10.27;;;;;;;8.13;100.00;92952.34;2586278;22;20008;-83
2023/06/03 04:38:51;;;;;;;18.45;9.48;;;;;;;8.23;100.00;92958.66;2597763;22;20006;-82
2023/06/03 04:40:01;;;;;;;21.40;10.25;;;;;;;8.22;100.00;92946.50;2597591;22;20478;-82
2023/06/03 04:41:11;;;;;;;18.88;10.00;;;;;;;8.22;100.00;92946.50;2597448;22;20011;-84
2023/06/03 04:42:21;;;;;;;19.40;10.77;;;;;;;8.21;100.00;92948.41;2595301;22;20007;-83
2023/06/03 04:43:31;;;;;;;15.35;10.10;;;;;;;8.22;100.00;92949.16;2573947;22;20427;-83
2023/06/03 04:44:42;;;;;;;15.75;9.02;;;;;;;8.30;100.00;92953.97;2573845;22;20378;-85
2023/06/03 04:45:55;;;;;;;20.77;9.68;;;;;;;8.36;100.00;92956.91;2574480;22;20495;-82
2023/06/03 04:47:04;;;;;;;16.38;10.00;;;;;;;8.40;100.00;92948.91;2597917;22;20000;-83
2023/06/03 04:48:22;;;;;;;18.75;10.80;;;;;;;8.40;100.00;92954.97;2597363;22;20085;-84
2023/06/03 04:49:32;;;;;;;21.23;9.95;;;;;;;8.43;100.00;92956.84;2599387;22;20012;-83
2023/06/03 04:50:45;;;;;;;21.48;10.82;;;;;;;8.48;100.00;92948.38;2598559;22;20004;-82
2023/06/03 04:51:55;;;;;;;17.02;10.75;;;;;;;8.49;100.00;92944.56;2620689;22;20003;-79
2023/06/03 04:53:04;;;;;;;19.98;10.30;;;;;;;8.55;100.00;92944.84;2618351;22;20449;-79
2023/06/03 04:54:14;;;;;;;22.05;11.25;;;;;;;8.66;100.00;92952.66;2603078;22;20009;-85
2023/06/03 04:55:22;;;;;;;;;;;;;;;8.69;100.00;92939.28;2600305;22;20000;-84
2023/06/03 04:56:33;;;;;;;18.55;9.15;;;;;;;8.74;100.00;92941.47;2585787;22;19914;-85
2023/06/03 04:57:45;;;;;;;21.10;11.20;;;;;;;8.88;100.00;92937.81;2588322;22;20050;-80
2023/06/03 04:58:57;;;;;;;20.98;10.52;;;;;;;8.94;100.00;92940.72;2599208;22;20033;-84
2023/06/03 05:00:11;;;;;;;20.70;10.05;;;;;;;8.97;100.00;92939.94;2598658;22;20003;-80
2023/06/03 05:01:21;;;;;;;21.20;10.32;;;;;;;8.99;100.00;92950.91;2611214;22;20007;-85
2023/06/03 05:02:31;;;;;;;27.10;10.52;;;;;;;9.01;100.00;92952.03;2595349;22;20004;-81
2023/06/03 05:03:44;;;;;;;28.45;10.73;;;;;;;9.07;100.00;92947.72;2586670;22;20015;-82
2023/06/03 05:04:54;;;;;;;26.75;10.10;;;;;;;9.10;100.00;92946.16;2585269;22;20000;-81
2023/06/03 05:06:04;;;;;;;22.27;10.43;;;;;;;9.19;100.00;92942.94;2597392;22;20545;-86
2023/06/03 05:07:14;;;;;;;26.15;11.30;;;;;;;9.23;100.00;92939.03;2608411;22;20023;-82
2023/06/03 05:08:20;;;;;;;;;;;;;;;9.26;100.00;92943.56;2598149;22;20007;-85
2023/06/03 05:09:31;;;;;;;32.70;10.30;;;;;;;9.32;100.00;92943.81;2583778;22;19923;-83
2023/06/03 05:10:41;;;;;;;30.02;10.50;;;;;;;9.37;100.00;92943.34;2586334;22;20354;-82
2023/06/03 05:11:47;;;;;;;;;;;;;;;9.41;100.00;92936.03;2598027;22;19999;-84
2023/06/03 05:13:00;;;;;;;22.13;9.75;;;;;;;9.43;100.00;92938.25;2583560;22;19914;-83
2023/06/03 05:14:12;;;;;;;20.40;10.85;;;;;;;9.45;100.00;92943.97;2597796;22;20023;-84
2023/06/03 05:15:22;;;;;;;21.00;10.13;;;;;;;9.51;100.00;92945.72;2584569;22;20054;-82
2023/06/03 05:16:29;;;;;;;;;;;;;;;9.56;100.00;92942.56;2586886;22;20438;-81
2023/06/03 05:17:42;;;;;;;26.17;9.93;;;;;;;9.58;100.00;92942.91;2595784;22;19914;-86
2023/06/03 05:18:53;;;;;;;24.70;10.43;;;;;;;9.63;100.00;92948.94;2584492;22;20111;-85
2023/06/03 05:20:04;;;;;;;21.23;10.50;;;;;;;9.64;100.00;92942.41;2584535;22;20000;-86
2023/06/03 05:21:12;;;;;;;24.45;10.48;;;;;;;9.67;100.00;92939.69;2586181;22;20004;-82
2023/06/03 05:22:25;;;;;;;16.30;10.48;;;;;;;9.71;100.00;92939.59;2607858;22;20003;-81
2023/06/03 05:23:37;;;;;;;26.13;10.48;;;;;;;9.78;100.00;92942.84;2608312;22;20003;-85
2023/06/03 05:24:47;;;;;;;28.77;10.63;;;;;;;9.83;100.00;92946.94;2597519;22;20434;-82
2023/06/03 05:25:53;;;;;;;;;;;;;;;10.11;100.00;92936.81;2584902;22;20007;-86
2023/06/03 05:27:03;;;;;;;33.80;10.95;;;;;;;10.08;100.00;92938.41;2584661;22;19907;-85
2023/06/03 05:28:14;;;;;;;27.55;10.77;;;;;;;10.07;100.00;92940.31;2584067;22;20512;-82
2023/06/03 05:29:24;;;;;;;21.13;10.07;;;;;;;10.04;100.00;92938.47;2573505;22;20009;-80
2023/06/03 05:30:30;;;;;;;;;;;;;;;10.09;100.00;92939.88;2574051;22;20466;-85
2023/06/03 05:31:40;;;;;;;29.05;11.13;;;;;;;10.04;100.00;92937.72;2571901;22;19939;-82
2023/06/03 05:32:50;;;;;;;20.55;10.52;;;;;;;10.11;100.00;92936.81;2585893;22;20446;-83
2023/06/03 05:33:56;;;;;;;;;;;;;;;10.11;100.00;92934.91;2584594;22;20052;-82
2023/06/03 05:35:06;;;;;;;27.40;11.18;;;;;;;10.09;100.00;92935.31;2596165;22;19945;-87
2023/06/03 05:36:16;;;;;;;23.58;10.57;;;;;;;10.13;100.00;92929.13;2594461;22;20426;-82
2023/06/03 05:37:27;;;;;;;24.30;10.43;;;;;;;10.11;100.00;92934.16;2585546;22;20027;-86
2023/06/03 05:38:37;;;;;;;22.70;11.23;;;;;;;10.14;100.00;92931.41;2596939;22;20069;-82
2023/06/03 05:39:49;;;;;;;25.17;10.40;;;;;;;10.15;100.00;92929.47;2596544;22;20304;-84
2023/06/03 05:41:03;;;;;;;21.05;11.10;;;;;;;10.24;100.00;92930.44;2607399;22;20507;-83
2023/06/03 05:42:12;;;;;;;22.48;10.93;;;;;;;10.33;100.00;92924.50;2594776;22;20296;-83
2023/06/03 05:43:23;;;;;;;26.10;11.93;;;;;;;10.35;100.00;92932.84;2598820;22;20000;-85
2023/06/03 05:44:33;;;;;;;25.38;11.98;;;;;;;10.34;100.00;92923.31;2594838;22;20007;-81
2023/06/03 05:45:44;;;;;;;28.85;12.07;;;;;;;10.32;100.00;92931.75;2583729;22;20088;-83
2023/06/03 05:46:53;;;;;;;25.67;11.77;;;;;;;10.36;100.00;92925.56;2586517;22;20004;-86
2023/06/03 05:48:02;;;;;;;23.52;11.52;;;;;;;10.46;100.00;92921.91;2596392;22;20023;-81
2023/06/03 05:49:12;;;;;;;21.75;10.90;;;;;;;10.62;100.00;92926.47;2596493;22;20007;-86
2023/06/03 05:50:23;;;;;;;27.20;11.38;;;;;;;10.71;100.00;92926.59;2609667;22;20007;-84
2023/06/03 05:51:34;;;;;;;28.90;13.48;;;;;;;10.65;100.00;92922.97;2607469;22;20424;-82